Time;durP1;ratioP1;P1;durP2;ratioP2;P2;SDS_P1;SDS_P2;PMS_P1;PMS_P2;Temp;Humidity;BMP_temperature;BMP_pressure;BME280_temperature;BME280_humidity;BME280_pressure;Samples;Min_cycle;Max_cycle;Signal;HPM_P1;HPM_P2
2022/09/25 00:00:43;;;;;;;14.33;10.17;;;12.90;99.90;;;;;;5054873;28;20172;-42
2022/09/25 00:03:14;;;;;;;13.00;10.33;;;12.90;99.90;;;;;;5037067;28;20557;-41
2022/09/25 00:05:41;;;;;;;14.83;10.50;;;12.90;99.90;;;;;;5055351;28;20187;-42
2022/09/25 00:08:08;;;;;;;13.10;10.17;;;12.90;99.90;;;;;;5036963;28;20196;-42
2022/09/25 00:10:39;;;;;;;18.07;10.43;;;12.90;99.90;;;;;;5036973;28;20788;-41
2022/09/25 00:13:04;;;;;;;14.30;10.40;;;12.80;99.90;;;;;;5036874;28;20520;-39
2022/09/25 00:15:30;;;;;;;10.37;8.90;;;12.80;99.90;;;;;;5054881;28;20176;-39
2022/09/25 00:17:56;;;;;;;12.23;7.97;;;12.80;99.90;;;;;;5054788;28;20673;-38
2022/09/25 00:20:22;;;;;;;11.80;8.37;;;12.80;99.90;;;;;;5036705;28;20306;-41
2022/09/25 00:22:49;;;;;;;12.23;7.87;;;12.80;99.90;;;;;;5054764;28;20192;-40
2022/09/25 00:25:15;;;;;;;11.50;8.23;;;12.80;99.90;;;;;;5036849;28;20184;-38
2022/09/25 00:27:44;;;;;;;12.27;7.73;;;12.80;99.90;;;;;;5037270;28;20204;-40
2022/09/25 00:30:12;;;;;;;11.00;7.60;;;12.70;99.90;;;;;;5054499;28;20180;-41
2022/09/25 00:32:38;;;;;;;12.33;8.13;;;12.80;99.90;;;;;;5054316;28;20218;-40
2022/09/25 00:35:04;;;;;;;10.23;8.17;;;12.70;99.90;;;;;;5054295;28;20629;-40
2022/09/25 00:37:32;;;;;;;11.30;8.47;;;12.70;99.90;;;;;;5054232;28;20193;-38
2022/09/25 00:39:58;;;;;;;12.83;9.27;;;12.70;99.90;;;;;;5036397;28;20242;-42
2022/09/25 00:42:24;;;;;;;11.87;8.87;;;12.60;99.90;;;;;;5036283;28;20659;-39
2022/09/25 00:45:00;;;;;;;11.80;9.00;;;12.60;99.90;;;;;;5054396;28;20183;-42
2022/09/25 00:47:34;;;;;;;17.17;8.87;;;12.70;99.90;;;;;;5054356;28;20200;-41
2022/09/25 00:50:03;;;;;;;14.07;9.57;;;12.60;99.90;;;;;;5054007;28;20168;-40
2022/09/25 00:52:29;;;;;;;13.93;9.20;;;12.60;99.90;;;;;;5053978;28;20291;-41
2022/09/25 00:54:59;;;;;;;17.03;10.53;;;12.60;99.90;;;;;;5054033;28;20168;-42
2022/09/25 00:57:29;;;;;;;13.17;9.00;;;12.60;99.90;;;;;;5054095;28;20188;-41
2022/09/25 01:00:15;;;;;;;12.60;8.23;;;12.50;99.90;;;;;;5053814;28;20646;-41
2022/09/25 01:02:45;;;;;;;13.60;8.07;;;12.50;99.90;;;;;;5035634;28;20684;-40
2022/09/25 01:05:16;;;;;;;9.70;7.10;;;12.50;99.90;;;;;;5053576;28;20195;-39
2022/09/25 01:07:45;;;;;;;13.37;8.20;;;12.40;99.90;;;;;;5053929;28;20196;-41
2022/09/25 01:10:10;;;;;;;11.53;7.60;;;12.50;99.90;;;;;;5053767;28;20172;-40
2022/09/25 01:12:40;;;;;;;9.93;7.47;;;12.50;99.90;;;;;;5053780;28;20558;-41
2022/09/25 01:15:09;;;;;;;14.57;8.90;;;12.50;99.90;;;;;;5053698;28;20255;-40
2022/09/25 01:29:31;;;;;;;13.87;6.97;;;12.40;99.90;;;;;;5011645;28;20225;-38
2022/09/25 01:32:35;;;;;;;10.17;6.03;;;12.30;99.90;;;;;;5013554;28;20217;-42
2022/09/25 01:35:18;;;;;;;10.17;5.63;;;12.30;99.90;;;;;;5015963;28;20215;-39
2022/09/25 01:37:48;;;;;;;11.43;5.77;;;12.30;99.90;;;;;;5005213;23;20236;-38
2022/09/25 01:40:23;;;;;;;11.40;5.67;;;12.30;99.90;;;;;;4993837;28;20162;-38
2022/09/25 01:42:54;;;;;;;10.83;5.80;;;12.30;99.90;;;;;;4994089;28;20166;-38
2022/09/25 01:45:28;;;;;;;12.37;5.70;;;12.30;99.90;;;;;;4976531;28;20166;-40
2022/09/25 01:47:57;;;;;;;10.83;5.80;;;12.30;99.90;;;;;;4976267;28;20208;-39
2022/09/25 01:50:28;;;;;;;9.23;4.80;;;12.30;99.90;;;;;;4993743;28;20260;-40
2022/09/25 01:52:58;;;;;;;9.27;4.47;;;12.30;99.90;;;;;;4993693;28;20564;-38
2022/09/25 01:55:35;;;;;;;9.40;4.23;;;12.30;99.90;;;;;;4993887;28;20229;-39
2022/09/25 01:58:26;;;;;;;11.10;4.60;;;12.30;99.90;;;;;;4993508;28;20675;-42
2022/09/25 02:00:58;;;;;;;9.67;4.20;;;12.30;99.90;;;;;;4993922;28;20174;-38
2022/09/25 02:03:29;;;;;;;7.63;3.60;;;12.30;99.90;;;;;;4993578;28;20188;-40
2022/09/25 02:06:01;;;;;;;7.93;2.93;;;12.30;99.90;;;;;;4993905;28;20628;-41
2022/09/25 02:08:40;;;;;;;12.03;3.47;;;12.30;99.90;;;;;;4976039;28;20663;-38
2022/09/25 02:11:07;;;;;;;6.43;3.50;;;12.30;99.90;;;;;;4993871;28;20166;-39
2022/09/25 02:13:59;;;;;;;7.70;2.87;;;12.20;99.90;;;;;;4994055;28;20595;-40
2022/09/25 02:16:36;;;;;;;9.17;2.70;;;12.20;99.90;;;;;;4957096;28;20214;-39
2022/09/25 02:22:10;;;;;;;6.77;2.30;;;12.30;99.90;;;;;;4997713;28;20184;-41
2022/09/25 02:25:11;;;;;;;7.10;2.37;;;12.20;99.90;;;;;;4997430;28;20163;-38
2022/09/25 02:27:37;;;;;;;9.00;2.20;;;12.20;99.90;;;;;;4997478;28;20217;-42
2022/09/25 02:30:03;;;;;;;6.83;2.00;;;12.20;99.90;;;;;;4997507;28;20639;-41
2022/09/25 02:32:30;;;;;;;7.67;2.30;;;12.20;99.90;;;;;;4997040;28;20208;-41
2022/09/25 02:34:56;;;;;;;7.70;2.90;;;12.20;99.90;;;;;;4997461;28;20171;-40
2022/09/25 02:37:22;;;;;;;4.13;2.20;;;12.10;99.90;;;;;;4996904;28;20214;-39
2022/09/25 02:39:52;;;;;;;13.23;2.90;;;12.10;99.90;;;;;;4997354;28;20182;-40
2022/09/25 02:43:08;;;;;;;6.50;2.57;;;12.10;99.90;;;;;;4996995;28;20186;-39
2022/09/25 02:46:08;;;;;;;7.53;2.47;;;12.10;99.90;;;;;;4964183;28;20195;-40
2022/09/25 02:48:40;;;;;;;8.57;3.13;;;12.10;99.90;;;;;;4981240;28;20234;-41
2022/09/25 02:51:18;;;;;;;10.00;3.00;;;12.10;99.90;;;;;;4997186;28;20174;-41
2022/09/25 02:53:59;;;;;;;7.67;2.73;;;12.10;99.90;;;;;;4990146;28;20670;-39
2022/09/25 02:56:32;;;;;;;5.77;2.93;;;12.10;99.90;;;;;;4996903;28;20173;-40
2022/09/25 02:59:05;;;;;;;7.73;2.90;;;12.10;99.90;;;;;;4997073;28;20162;-41
2022/09/25 03:01:34;;;;;;;7.10;2.93;;;12.10;99.90;;;;;;4996717;28;20158;-40
2022/09/25 03:04:00;;;;;;;8.63;2.57;;;12.10;99.90;;;;;;4996749;28;20194;-40
2022/09/25 03:06:27;;;;;;;10.00;3.53;;;12.10;99.90;;;;;;4996662;28;20254;-42
2022/09/25 03:08:55;;;;;;;12.87;3.17;;;12.10;99.90;;;;;;4996561;28;20175;-41
2022/09/25 03:11:23;;;;;;;8.20;2.70;;;12.10;99.90;;;;;;4996516;28;20186;-40
2022/09/25 03:13:56;;;;;;;10.77;3.63;;;12.10;99.90;;;;;;4996693;28;20174;-39
2022/09/25 03:16:44;;;;;;;7.70;3.30;;;12.10;99.90;;;;;;4996799;28;20269;-41
2022/09/25 03:19:10;;;;;;;7.67;3.00;;;12.10;99.90;;;;;;4996709;28;20221;-40
2022/09/25 03:21:36;;;;;;;6.90;3.07;;;12.00;99.90;;;;;;4996347;28;20688;-42
2022/09/25 03:24:02;;;;;;;11.50;3.03;;;12.10;99.90;;;;;;4978975;28;20639;-42
2022/09/25 03:26:28;;;;;;;5.43;2.87;;;12.10;99.90;;;;;;4995901;28;20174;-42
2022/09/25 03:28:54;;;;;;;8.10;3.70;;;12.10;99.90;;;;;;4996196;28;20175;-42
2022/09/25 03:31:19;;;;;;;7.40;3.87;;;12.10;99.90;;;;;;4996591;28;20201;-42
2022/09/25 03:33:46;;;;;;;9.43;4.53;;;12.10;99.90;;;;;;4996228;28;20737;-41
2022/09/25 03:36:17;;;;;;;10.93;4.20;;;12.10;99.90;;;;;;4996301;28;20596;-40
2022/09/25 03:38:44;;;;;;;6.23;3.63;;;12.00;99.90;;;;;;4995110;28;20188;-41
2022/09/25 03:41:12;;;;;;;13.50;4.20;;;12.00;99.90;;;;;;4996028;28;20217;-41
2022/09/25 03:43:40;;;;;;;8.43;3.53;;;12.00;99.90;;;;;;4996126;28;20265;-42
2022/09/25 03:46:08;;;;;;;8.53;3.43;;;12.00;99.90;;;;;;4996251;28;20178;-38
2022/09/25 03:48:34;;;;;;;7.63;3.27;;;12.00;99.90;;;;;;4995813;28;20202;-40
2022/09/25 03:51:01;;;;;;;13.50;3.20;;;12.00;99.90;;;;;;4995862;28;20317;-40
2022/09/25 03:53:32;;;;;;;6.90;2.83;;;12.00;99.90;;;;;;4995732;28;20198;-40
2022/09/25 03:56:02;;;;;;;6.80;3.00;;;12.00;99.90;;;;;;4995964;28;20443;-39
2022/09/25 03:58:28;;;;;;;5.93;3.00;;;11.90;99.90;;;;;;4995683;28;20202;-38
2022/09/25 04:00:56;;;;;;;7.23;2.87;;;11.90;99.90;;;;;;4995895;28;20301;-40
2022/09/25 04:03:23;;;;;;;8.93;2.97;;;12.00;99.90;;;;;;4995810;28;20214;-39
2022/09/25 04:05:49;;;;;;;7.33;2.73;;;11.90;99.90;;;;;;4995450;28;20265;-40
2022/09/25 04:08:15;;;;;;;10.07;2.97;;;11.90;99.90;;;;;;4995369;28;20197;-39
2022/09/25 04:10:41;;;;;;;7.57;2.50;;;11.90;99.90;;;;;;4995513;28;20679;-39
2022/09/25 04:13:11;;;;;;;8.47;2.77;;;11.80;99.90;;;;;;4995816;28;20289;-39
2022/09/25 04:15:39;;;;;;;6.37;2.27;;;11.90;99.90;;;;;;4995591;28;20659;-41
2022/09/25 04:18:05;;;;;;;5.97;2.70;;;11.80;99.90;;;;;;4995117;28;20559;-38
2022/09/25 04:20:31;;;;;;;12.17;2.70;;;11.80;99.90;;;;;;4995586;28;20205;-40
2022/09/25 04:22:56;;;;;;;6.27;2.00;;;11.80;99.90;;;;;;4995376;28;20185;-44
2022/09/25 04:25:24;;;;;;;13.93;2.30;;;11.80;99.90;;;;;;4995160;28;20190;-43
2022/09/25 04:27:55;;;;;;;6.63;2.20;;;11.70;99.90;;;;;;4994975;28;20205;-44
2022/09/25 04:30:26;;;;;;;8.50;2.30;;;11.80;99.90;;;;;;4995318;28;20536;-44
2022/09/25 04:35:36;;;;;;;4.33;2.10;;;11.70;99.90;;;;;;4995555;28;20586;-44
2022/09/25 04:38:02;;;;;;;7.47;2.20;;;11.70;99.90;;;;;;4993898;28;20257;-45
2022/09/25 04:40:28;;;;;;;9.77;2.33;;;11.70;99.90;;;;;;4994609;28;20193;-43
2022/09/25 04:43:00;;;;;;;6.77;2.33;;;11.70;99.90;;;;;;4994796;28;20188;-46
2022/09/25 04:45:27;;;;;;;6.07;2.53;;;11.70;99.90;;;;;;4994707;28;20174;-44
2022/09/25 04:47:54;;;;;;;6.27;2.13;;;11.70;99.90;;;;;;4994573;28;20233;-44
2022/09/25 04:50:22;;;;;;;6.47;2.23;;;11.60;99.90;;;;;;4994751;28;20194;-44
2022/09/25 04:52:50;;;;;;;6.43;1.80;;;11.60;99.90;;;;;;4994805;28;20210;-43
2022/09/25 04:55:20;;;;;;;7.63;2.57;;;11.60;99.90;;;;;;4994486;28;20690;-44
2022/09/25 04:57:56;;;;;;;9.37;2.17;;;11.60;99.90;;;;;;4977921;28;20687;-45
2022/09/25 05:00:24;;;;;;;11.73;2.30;;;11.60;99.90;;;;;;4994762;28;20173;-44
2022/09/25 05:02:50;;;;;;;6.67;1.93;;;11.60;99.90;;;;;;4994653;28;20524;-44
2022/09/25 05:05:16;;;;;;;6.40;1.90;;;11.60;99.90;;;;;;4994633;28;20186;-44
2022/09/25 05:07:53;;;;;;;26.73;5.13;;;11.60;99.90;;;;;;4994521;28;20241;-44
2022/09/25 05:10:19;;;;;;;6.07;1.90;;;11.50;99.90;;;;;;4994339;28;20182;-45
2022/09/25 05:12:46;;;;;;;6.10;1.47;;;11.50;99.90;;;;;;4994166;28;20210;-44
2022/09/25 05:15:12;;;;;;;6.97;1.70;;;11.50;99.90;;;;;;4994374;28;20174;-45
2022/09/25 05:17:38;;;;;;;6.40;2.00;;;11.50;99.90;;;;;;4994333;28;20198;-44
2022/09/25 05:20:04;;;;;;;6.57;1.67;;;11.50;99.90;;;;;;4994660;28;20542;-43
2022/09/25 05:22:29;;;;;;;8.07;1.80;;;11.50;99.90;;;;;;4994046;28;20186;-43
2022/09/25 05:24:55;;;;;;;5.00;1.87;;;11.50;99.90;;;;;;4993978;28;20198;-44
2022/09/25 05:27:22;;;;;;;5.80;1.60;;;11.50;99.90;;;;;;4993960;28;20213;-42
2022/09/25 05:29:48;;;;;;;3.83;2.13;;;11.40;99.90;;;;;;4994249;28;20183;-44
2022/09/25 05:32:14;;;;;;;4.80;1.73;;;11.40;99.90;;;;;;4994066;28;20213;-45
2022/09/25 05:34:40;;;;;;;10.50;1.90;;;11.40;99.90;;;;;;4994422;28;20234;-44
2022/09/25 05:37:05;;;;;;;5.57;2.07;;;11.50;99.90;;;;;;4993905;28;20679;-44
2022/09/25 05:39:31;;;;;;;4.37;2.00;;;11.40;99.90;;;;;;4993720;28;20185;-43
2022/09/25 05:41:57;;;;;;;8.50;2.00;;;11.40;99.90;;;;;;4993855;28;20239;-45
2022/09/25 05:44:23;;;;;;;8.77;1.93;;;11.40;99.90;;;;;;4994978;28;20631;-43
2022/09/25 05:46:49;;;;;;;6.07;1.80;;;11.40;99.90;;;;;;4993692;28;20209;-44
2022/09/25 05:49:15;;;;;;;3.73;1.40;;;11.40;99.90;;;;;;4993442;28;20185;-43
2022/09/25 05:51:40;;;;;;;7.73;2.07;;;11.40;99.90;;;;;;4993874;28;20190;-43
2022/09/25 05:54:06;;;;;;;5.87;1.87;;;11.40;99.90;;;;;;4993551;28;20644;-43
2022/09/25 05:56:32;;;;;;;9.60;2.53;;;11.30;99.90;;;;;;4993562;28;20648;-44
2022/09/25 05:58:58;;;;;;;7.97;3.63;;;11.40;99.90;;;;;;4993612;28;20200;-45
2022/09/25 06:01:23;;;;;;;13.47;8.63;;;11.40;99.90;;;;;;4976238;28;20182;-42
2022/09/25 06:03:49;;;;;;;28.60;20.50;;;11.30;99.90;;;;;;4993947;28;20264;-44
2022/09/25 06:06:15;;;;;;;24.70;16.00;;;11.40;99.90;;;;;;4993736;28;20197;-44
2022/09/25 06:08:40;;;;;;;15.43;9.27;;;11.40;99.90;;;;;;4993880;28;20241;-45
2022/09/25 06:11:07;;;;;;;12.37;5.23;;;11.40;99.90;;;;;;4994045;28;20194;-45
2022/09/25 06:13:33;;;;;;;5.13;2.90;;;11.40;99.90;;;;;;4993825;28;20229;-45
2022/09/25 06:16:00;;;;;;;6.17;2.73;;;11.40;99.90;;;;;;4993837;28;20190;-44
2022/09/25 06:18:26;;;;;;;8.60;2.47;;;11.40;99.90;;;;;;4994027;28;20206;-43
2022/09/25 06:20:57;;;;;;;9.23;3.67;;;11.40;99.90;;;;;;4993387;28;20663;-46
2022/09/25 06:23:23;;;;;;;8.47;2.20;;;11.40;99.90;;;;;;4993971;28;20538;-44
2022/09/25 06:25:48;;;;;;;10.13;3.07;;;11.40;99.90;;;;;;4993239;28;20182;-45
2022/09/25 06:28:14;;;;;;;11.03;3.47;;;11.40;99.90;;;;;;4993545;28;20674;-43
2022/09/25 06:30:39;;;;;;;8.97;4.00;;;11.50;99.90;;;;;;4993412;28;20522;-43
2022/09/25 06:33:11;;;;;;;9.30;3.87;;;11.50;99.90;;;;;;4993295;28;20212;-44
2022/09/25 06:35:44;;;;;;;12.07;4.10;;;11.50;99.90;;;;;;5013186;28;20518;-44
2022/09/25 06:38:11;;;;;;;7.20;3.63;;;11.50;99.90;;;;;;5012614;28;20288;-43
2022/09/25 06:40:39;;;;;;;6.83;2.60;;;11.50;99.90;;;;;;5012811;28;20211;-43
2022/09/25 06:43:08;;;;;;;6.37;2.30;;;11.50;99.90;;;;;;5012787;28;20610;-42
2022/09/25 06:45:33;;;;;;;6.80;2.43;;;11.50;99.90;;;;;;5012805;28;20181;-43
2022/09/25 06:48:01;;;;;;;7.20;2.13;;;11.50;99.90;;;;;;5012737;28;20268;-43
2022/09/25 06:50:31;;;;;;;10.50;2.53;;;11.50;99.90;;;;;;5013496;28;20478;-43
2022/09/25 06:52:58;;;;;;;10.73;2.73;;;11.40;99.90;;;;;;5012957;28;20651;-44
2022/09/25 06:55:24;;;;;;;5.07;2.40;;;11.50;99.90;;;;;;5012806;28;20251;-44
2022/09/25 06:57:50;;;;;;;9.20;3.03;;;11.40;99.90;;;;;;5012548;28;20212;-44
2022/09/25 07:00:15;;;;;;;9.23;2.80;;;11.40;99.90;;;;;;5012723;28;20186;-45
2022/09/25 07:05:25;;;;;;;12.83;4.57;;;11.40;99.90;;;;;;5016437;28;20181;-42
2022/09/25 07:07:52;;;;;;;9.53;2.87;;;11.30;99.90;;;;;;5016081;28;20212;-45
2022/09/25 07:10:18;;;;;;;6.73;3.00;;;11.30;99.90;;;;;;5016105;28;20193;-43
2022/09/25 07:12:44;;;;;;;4.10;2.23;;;11.30;99.90;;;;;;5016003;28;20208;-44
2022/09/25 07:15:10;;;;;;;6.77;2.33;;;11.20;99.90;;;;;;5016904;28;20185;-43
2022/09/25 07:17:40;;;;;;;5.77;2.13;;;11.20;99.90;;;;;;5016292;28;20201;-42
2022/09/25 07:20:07;;;;;;;6.40;1.90;;;11.20;99.90;;;;;;4998407;28;20182;-43
2022/09/25 07:22:32;;;;;;;5.37;2.10;;;11.20;99.90;;;;;;5016362;28;20189;-45
2022/09/25 07:24:58;;;;;;;7.40;2.10;;;11.20;99.90;;;;;;5015892;28;20547;-44
2022/09/25 07:27:23;;;;;;;16.87;2.60;;;11.30;99.90;;;;;;5016174;28;20209;-45
2022/09/25 07:29:51;;;;;;;4.23;1.77;;;11.30;99.90;;;;;;5015855;28;20193;-44
2022/09/25 07:32:16;;;;;;;8.23;2.43;;;11.40;99.90;;;;;;5015866;28;20259;-41
2022/09/25 07:34:42;;;;;;;10.33;2.77;;;11.50;99.90;;;;;;5015884;28;20185;-44
2022/09/25 07:37:08;;;;;;;8.33;2.83;;;11.50;99.90;;;;;;5015461;28;20647;-45
2022/09/25 07:39:33;;;;;;;11.20;4.10;;;11.60;99.90;;;;;;4997893;28;20527;-41
2022/09/25 07:41:59;;;;;;;13.03;4.07;;;11.70;99.90;;;;;;5015518;28;20193;-44
2022/09/25 07:44:24;;;;;;;8.87;3.10;;;11.60;99.90;;;;;;5015511;28;20181;-43
2022/09/25 07:46:50;;;;;;;10.00;2.90;;;11.90;99.90;;;;;;5045546;23;20596;-86
2022/09/25 07:49:16;;;;;;;10.00;3.83;;;11.90;99.90;;;;;;5077062;28;20175;-89
2022/09/25 07:51:42;;;;;;;7.67;3.03;;;12.00;99.90;;;;;;5062740;28;20187;-88
2022/09/25 07:54:07;;;;;;;6.33;2.20;;;12.10;99.90;;;;;;5058608;28;20183;-87
2022/09/25 07:56:33;;;;;;;9.27;2.17;;;12.10;99.90;;;;;;5060791;28;20249;-89
2022/09/25 07:58:59;;;;;;;9.03;1.90;;;12.10;99.90;;;;;;5075766;28;20181;-88
2022/09/25 08:01:24;;;;;;;9.10;1.80;;;12.20;99.90;;;;;;5074922;28;20663;-90
2022/09/25 08:03:50;;;;;;;7.43;2.20;;;12.30;99.90;;;;;;5075535;28;20179;-88
2022/09/25 08:06:15;;;;;;;9.50;2.47;;;12.30;99.90;;;;;;5075349;28;20239;-89
2022/09/25 08:08:42;;;;;;;7.07;2.10;;;12.60;99.90;;;;;;5075261;28;20179;-87
2022/09/25 08:11:14;;;;;;;7.83;2.47;;;12.40;99.90;;;;;;5075305;28;20187;-90
2022/09/25 08:13:40;;;;;;;9.30;2.70;;;12.50;99.90;;;;;;5075267;28;20253;-88
2022/09/25 08:16:10;;;;;;;11.03;2.87;;;12.60;99.90;;;;;;5074674;28;20273;-88
2022/09/25 08:18:37;;;;;;;8.63;2.10;;;12.70;99.90;;;;;;5074754;28;20176;-89
2022/09/25 08:21:04;;;;;;;3.23;1.53;;;13.10;99.90;;;;;;5074481;28;20229;-86
2022/09/25 08:23:30;;;;;;;6.27;1.90;;;12.70;99.90;;;;;;5074514;28;20544;-85
2022/09/25 08:25:56;;;;;;;8.70;2.13;;;12.80;99.90;;;;;;5074488;28;20299;-87
2022/09/25 08:28:22;;;;;;;10.13;2.10;;;12.90;99.90;;;;;;5074488;28;20202;-86
2022/09/25 08:30:48;;;;;;;11.37;2.00;;;12.90;99.90;;;;;;5074557;28;20677;-85
2022/09/25 08:33:13;;;;;;;5.10;1.60;;;13.00;99.90;;;;;;5075614;28;20365;-87
2022/09/25 08:35:40;;;;;;;8.97;2.03;;;13.00;99.90;;;;;;5075586;28;20171;-87
2022/09/25 08:38:06;;;;;;;10.23;1.80;;;14.10;99.90;;;;;;5074068;28;20734;-86
2022/09/25 08:40:33;;;;;;;7.87;1.47;;;13.10;99.90;;;;;;5074048;28;20176;-88
2022/09/25 08:42:59;;;;;;;9.13;1.70;;;13.20;99.90;;;;;;5073451;28;20179;-87
2022/09/25 08:51:13;;;;;;;8.13;1.60;;;13.50;99.90;;;;;;5076410;28;20168;-85
2022/09/25 08:53:41;;;;;;;5.00;1.40;;;13.50;99.90;;;;;;5074355;28;20569;-85
2022/09/25 08:56:18;;;;;;;12.60;1.80;;;13.50;99.90;;;;;;5074468;28;20172;-85
2022/09/25 08:58:55;;;;;;;4.73;1.20;;;13.50;99.90;;;;;;5074763;28;20171;-86
2022/09/25 09:01:25;;;;;;;12.13;1.40;;;13.50;99.90;;;;;;5078584;28;20164;-84
2022/09/25 09:04:04;;;;;;;5.03;1.33;;;13.50;99.90;;;;;;5077660;28;20178;-84
2022/09/25 09:06:31;;;;;;;7.93;1.73;;;13.60;99.90;;;;;;5074504;28;20290;-83
2022/09/25 09:09:28;;;;;;;4.63;1.50;;;13.70;99.90;;;;;;5074142;28;20187;-82
2022/09/25 09:12:06;;;;;;;8.43;1.73;;;13.80;99.90;;;;;;5054938;28;20544;-89
2022/09/25 09:14:39;;;;;;;8.43;1.37;;;14.00;99.90;;;;;;5074480;28;20189;-88
2022/09/25 09:17:16;;;;;;;8.73;1.20;;;14.00;99.90;;;;;;5073887;28;20689;-87
2022/09/25 09:19:45;;;;;;;7.20;1.73;;;14.00;99.90;;;;;;5074260;28;20180;-85
2022/09/25 09:22:13;;;;;;;10.13;1.70;;;14.10;99.90;;;;;;5074203;28;20325;-85
2022/09/25 09:25:04;;;;;;;9.67;1.47;;;14.30;99.90;;;;;;5072842;28;20176;-86
2022/09/25 09:27:44;;;;;;;8.80;1.27;;;14.60;99.90;;;;;;5074270;28;20200;-84
2022/09/25 09:30:22;;;;;;;6.93;1.97;;;14.60;99.90;;;;;;5073652;28;20207;-86
2022/09/25 09:33:06;;;;;;;9.80;1.57;;;14.60;99.90;;;;;;5074475;28;20203;-84
2022/09/25 09:35:51;;;;;;;4.13;1.00;;;14.70;99.90;;;;;;5074280;28;20224;-84
2022/09/25 09:38:38;;;;;;;4.90;1.30;;;14.80;99.90;;;;;;5073773;28;20195;-87
2022/09/25 09:41:17;;;;;;;3.67;0.93;;;14.90;99.90;;;;;;5075895;28;20155;-85
2022/09/25 09:44:22;;;;;;;4.33;0.83;;;14.90;99.90;;;;;;5075136;28;20713;-88
2022/09/25 09:47:16;;;;;;;3.67;0.97;;;14.90;99.90;;;;;;5075505;28;20210;-86
2022/09/25 09:49:57;;;;;;;4.67;1.10;;;14.80;99.90;;;;;;5073600;28;20176;-85
2022/09/25 09:52:31;;;;;;;7.20;0.90;;;14.90;99.90;;;;;;5075393;28;20287;-84
2022/09/25 09:55:12;;;;;;;3.33;1.10;;;14.90;99.90;;;;;;5079328;28;20163;-88
2022/09/25 09:57:50;;;;;;;2.30;1.10;;;14.80;99.90;;;;;;5072460;28;20227;-87
2022/09/25 10:00:17;;;;;;;3.53;1.13;;;14.80;99.90;;;;;;5072908;28;20164;-87
2022/09/25 10:03:03;;;;;;;4.63;1.20;;;14.80;99.90;;;;;;5072585;28;20183;-88
2022/09/25 10:05:46;;;;;;;7.20;1.13;;;15.00;99.90;;;;;;5074620;28;20174;-83
2022/09/25 10:08:12;;;;;;;2.90;1.13;;;15.10;99.90;;;;;;5073348;28;20191;-83
2022/09/25 10:10:41;;;;;;;3.47;0.80;;;15.30;99.90;;;;;;5073705;28;20193;-81
2022/09/25 10:13:25;;;;;;;6.80;0.90;;;15.50;99.90;;;;;;5074346;28;20221;-83
2022/09/25 10:15:56;;;;;;;4.50;0.93;;;15.60;99.90;;;;;;5074438;28;20201;-86
2022/09/25 10:18:30;;;;;;;4.60;0.70;;;15.50;99.90;;;;;;5072697;28;20167;-88
2022/09/25 10:21:05;;;;;;;4.67;1.10;;;15.40;99.90;;;;;;5073100;28;20542;-86
2022/09/25 10:23:45;;;;;;;8.60;1.03;;;15.30;99.90;;;;;;5073453;28;20182;-86
2022/09/25 10:26:40;;;;;;;2.37;0.80;;;15.30;99.90;;;;;;5072537;28;20207;-87
2022/09/25 10:29:09;;;;;;;5.77;1.00;;;15.30;99.90;;;;;;5052554;28;20191;-89
2022/09/25 10:31:39;;;;;;;6.17;0.80;;;15.50;99.90;;;;;;5073592;28;20189;-86
2022/09/25 10:34:16;;;;;;;4.47;1.13;;;15.50;99.90;;;;;;5072693;28;20255;-86
2022/09/25 10:36:50;;;;;;;7.43;1.20;;;15.60;99.90;;;;;;5076613;28;20199;-89
2022/09/25 10:39:38;;;;;;;3.37;0.80;;;15.70;99.90;;;;;;5077100;28;20259;-88
2022/09/25 10:42:25;;;;;;;6.87;1.13;;;15.80;99.90;;;;;;5076715;28;20180;-86
2022/09/25 10:44:54;;;;;;;4.83;1.00;;;15.80;99.90;;;;;;5076535;28;20202;-85
2022/09/25 10:50:22;;;;;;;2.73;0.80;;;15.90;99.90;;;;;;5077688;28;20255;-88
2022/09/25 10:52:54;;;;;;;2.67;0.90;;;15.90;99.90;;;;;;5075951;28;20635;-87
2022/09/25 10:55:45;;;;;;;5.13;0.80;;;16.10;99.90;;;;;;5076959;28;20184;-89
2022/09/25 10:58:10;;;;;;;5.20;0.90;;;16.20;99.90;;;;;;5076924;28;20191;-86
2022/09/25 11:00:50;;;;;;;3.20;0.90;;;16.30;99.90;;;;;;5077307;28;20171;-88
2022/09/25 11:03:22;;;;;;;3.70;0.77;;;16.40;99.90;;;;;;5077853;28;20579;-87
2022/09/25 11:05:54;;;;;;;5.20;1.00;;;16.40;99.90;;;;;;5076035;28;20174;-89
2022/09/25 11:08:23;;;;;;;3.13;0.80;;;16.30;99.90;;;;;;5077209;28;20221;-88
2022/09/25 11:10:54;;;;;;;4.97;0.80;;;16.20;99.90;;;;;;5076827;28;20214;-90
2022/09/25 11:13:26;;;;;;;4.57;1.13;;;16.10;99.90;;;;;;5076145;28;20301;-89
2022/09/25 11:15:57;;;;;;;7.20;1.10;;;16.00;99.90;;;;;;5077045;28;20168;-88
2022/09/25 11:18:50;;;;;;;4.10;0.90;;;16.20;99.90;;;;;;5076421;28;20164;-89
2022/09/25 11:21:31;;;;;;;4.50;1.33;;;16.20;99.90;;;;;;5072387;28;20736;-89
2022/09/25 11:24:05;;;;;;;4.33;0.80;;;16.30;99.90;;;;;;5076447;28;20174;-88
2022/09/25 11:26:43;;;;;;;5.03;1.03;;;16.30;99.90;;;;;;5076553;28;20244;-89
2022/09/25 11:29:32;;;;;;;3.93;0.90;;;16.30;99.90;;;;;;5076939;28;20172;-88
2022/09/25 11:32:04;;;;;;;4.27;0.80;;;16.50;99.90;;;;;;5025931;28;20183;-88
2022/09/25 11:34:32;;;;;;;6.60;1.40;;;16.30;99.90;;;;;;5076928;28;20531;-87
2022/09/25 11:37:09;;;;;;;3.47;0.87;;;16.30;99.90;;;;;;5076280;28;20244;-89
2022/09/25 11:42:34;;;;;;;2.00;0.80;;;16.50;99.90;;;;;;5077954;28;20564;-88
2022/09/25 11:45:35;;;;;;;4.67;0.90;;;16.80;99.90;;;;;;5076185;28;20179;-88
2022/09/25 11:48:20;;;;;;;5.67;1.27;;;16.90;99.90;;;;;;5075770;28;20704;-87
2022/09/25 11:51:06;;;;;;;3.37;0.93;;;16.70;99.90;;;;;;5076351;28;20163;-88
2022/09/25 11:53:51;;;;;;;3.83;0.70;;;16.70;99.90;;;;;;5076432;28;20248;-88
2022/09/25 11:56:39;;;;;;;5.13;0.97;;;16.40;99.90;;;;;;5079644;28;20261;-87
2022/09/25 11:59:52;;;;;;;4.57;1.27;;;16.30;99.90;;;;;;5077208;28;20172;-90
2022/09/25 12:21:14;;;;;;;3.67;1.80;;;16.80;99.90;;;;;;6227446;23;20263;-91
2022/09/25 12:24:03;;;;;;;5.17;2.17;;;16.70;99.90;;;;;;6112907;23;20248;-88
2022/09/25 12:27:03;;;;;;;6.80;1.37;;;16.50;99.90;;;;;;6112190;23;20197;-90
2022/09/25 12:30:11;;;;;;;2.47;1.13;;;16.50;99.90;;;;;;6211001;23;20156;-91
2022/09/25 12:33:13;;;;;;;2.63;0.70;;;16.60;99.90;;;;;;6226726;23;20159;-90
2022/09/25 12:36:35;;;;;;;4.60;1.10;;;16.60;99.90;;;;;;6228856;23;20628;-90
2022/09/25 12:39:32;;;;;;;5.67;0.87;;;16.70;99.90;;;;;;6226562;23;20156;-88
2022/09/25 12:42:12;;;;;;;3.07;0.70;;;16.90;99.90;;;;;;6230796;23;20163;-89
2022/09/25 12:44:51;;;;;;;4.60;1.23;;;16.90;99.90;;;;;;6230061;23;20156;-90
2022/09/25 12:47:45;;;;;;;2.77;0.97;;;17.10;99.90;;;;;;6230811;23;20202;-88
2022/09/25 12:50:30;;;;;;;2.87;1.00;;;17.30;99.90;;;;;;6231600;23;20148;-88
2022/09/25 12:53:01;;;;;;;3.40;0.80;;;18.10;99.90;;;;;;6224809;23;20159;-84
2022/09/25 12:55:36;;;;;;;1.70;0.70;;;17.70;99.90;;;;;;6224553;23;20498;-84
2022/09/25 12:58:23;;;;;;;3.00;0.80;;;17.80;99.90;;;;;;6224662;23;20290;-82
2022/09/25 13:00:55;;;;;;;5.93;0.90;;;18.00;99.90;;;;;;6224276;23;20183;-85
2022/09/25 13:03:29;;;;;;;1.47;0.50;;;18.20;99.90;;;;;;6224903;23;20148;-83
2022/09/25 13:06:13;;;;;;;4.43;1.00;;;18.20;99.90;;;;;;6223873;23;20181;-82
2022/09/25 13:08:47;;;;;;;3.00;1.00;;;18.20;99.90;;;;;;6225888;23;20186;-84
2022/09/25 13:11:35;;;;;;;4.90;1.20;;;18.00;99.90;;;;;;6224073;23;20227;-84
2022/09/25 13:14:01;;;;;;;3.80;0.87;;;18.00;99.90;;;;;;6224022;23;20152;-84
2022/09/25 13:16:27;;;;;;;4.33;0.80;;;18.10;99.90;;;;;;6225810;23;20561;-83
2022/09/25 13:19:22;;;;;;;2.43;1.30;;;18.20;99.90;;;;;;6217948;23;20180;-86
2022/09/25 13:21:48;;;;;;;2.40;0.70;;;18.00;99.90;;;;;;6217855;23;20587;-89
2022/09/25 13:24:16;;;;;;;4.63;0.80;;;18.00;99.90;;;;;;6217303;23;20168;-87
2022/09/25 13:26:49;;;;;;;4.07;1.07;;;18.00;99.90;;;;;;6216856;23;20250;-86
2022/09/25 13:29:35;;;;;;;4.50;0.77;;;18.10;99.90;;;;;;6217436;23;20141;-86
2022/09/25 13:32:21;;;;;;;2.43;0.80;;;18.10;99.90;;;;;;6217216;23;20598;-86
2022/09/25 13:34:52;;;;;;;1.90;0.60;;;18.10;99.90;;;;;;6216979;23;20152;-87
2022/09/25 13:37:25;;;;;;;2.30;0.80;;;18.20;99.90;;;;;;6217227;23;20176;-87
2022/09/25 13:42:40;;;;;;;4.07;0.80;;;18.40;99.90;;;;;;6218891;23;20155;-87
2022/09/25 13:45:33;;;;;;;2.27;0.50;;;18.40;99.90;;;;;;6216621;23;20197;-85
2022/09/25 13:48:02;;;;;;;2.47;0.50;;;18.40;99.90;;;;;;6216726;23;20173;-88
2022/09/25 13:50:39;;;;;;;1.33;0.70;;;18.30;99.90;;;;;;6218498;23;20148;-88
2022/09/25 13:53:16;;;;;;;1.17;0.50;;;18.40;99.90;;;;;;6216621;23;20144;-88
2022/09/25 13:55:43;;;;;;;3.70;1.63;;;18.50;99.90;;;;;;6216634;23;20152;-83
2022/09/25 13:58:25;;;;;;;2.27;1.03;;;18.50;99.90;;;;;;6216907;23;20184;-85
2022/09/25 14:00:57;;;;;;;2.83;1.20;;;18.50;99.90;;;;;;6217153;23;20148;-86
2022/09/25 14:03:44;;;;;;;1.77;1.00;;;18.50;99.90;;;;;;6218914;23;20148;-88